createdAt,value
2018-09-22T00:01:44.801Z,55.10
2018-09-22T00:04:13.314Z,55.00
2018-09-22T00:06:41.916Z,55.00
2018-09-22T00:09:11.837Z,55.00
2018-09-22T00:11:41.246Z,55.00
2018-09-22T00:14:09.941Z,55.10
2018-09-22T00:16:39.477Z,55.00
2018-09-22T00:19:08.009Z,55.00
2018-09-22T00:21:36.702Z,55.00
2018-09-22T00:24:05.243Z,55.00
2018-09-22T00:26:33.819Z,55.00
2018-09-22T00:29:02.302Z,55.00
2018-09-22T00:31:30.915Z,55.00
2018-09-22T00:33:59.404Z,55.00
2018-09-22T00:36:27.959Z,55.00
2018-09-22T00:38:56.569Z,55.00
2018-09-22T00:41:25.133Z,55.00
2018-09-22T00:43:53.668Z,55.00
2018-09-22T00:46:22.141Z,55.00
2018-09-22T00:48:50.643Z,55.00
2018-09-22T00:51:20.819Z,55.00
2018-09-22T00:53:51.543Z,55.00
2018-09-22T00:56:22.934Z,55.10
2018-09-22T00:58:53.132Z,55.00
2018-09-22T01:01:26.027Z,55.00
2018-09-22T01:03:56.700Z,55.10
2018-09-22T01:06:26.461Z,55.00
2018-09-22T01:08:57.492Z,55.00
2018-09-22T01:11:28.502Z,55.00
2018-09-22T01:13:57.024Z,55.00
2018-09-22T01:16:25.492Z,54.90
2018-09-22T01:18:53.996Z,55.00
2018-09-22T01:21:22.543Z,55.00
2018-09-22T01:23:50.964Z,54.90
2018-09-22T01:26:19.537Z,55.00
2018-09-22T01:28:48.046Z,55.00
2018-09-22T01:31:16.512Z,54.90
2018-09-22T01:33:44.893Z,54.90
2018-09-22T01:36:13.377Z,54.90
2018-09-22T01:38:41.959Z,54.90
2018-09-22T01:41:10.413Z,54.90
2018-09-22T01:43:39.554Z,54.90
2018-09-22T01:46:08.204Z,54.90
2018-09-22T01:48:36.740Z,54.90
2018-09-22T01:51:05.352Z,55.00
2018-09-22T01:53:34.062Z,55.00
2018-09-22T01:56:02.546Z,54.90
2018-09-22T01:58:31.138Z,54.90
2018-09-22T02:00:59.635Z,55.00
2018-09-22T02:03:28.101Z,54.90
2018-09-22T02:05:56.725Z,54.90
2018-09-22T02:08:25.161Z,54.90
2018-09-22T02:10:53.619Z,54.90
2018-09-22T02:13:22.158Z,54.90
2018-09-22T02:15:50.817Z,55.00
2018-09-22T02:18:19.300Z,54.90
2018-09-22T02:20:47.761Z,54.90
2018-09-22T02:23:16.299Z,54.90
2018-09-22T02:25:44.750Z,54.90
2018-09-22T02:28:13.285Z,54.90
2018-09-22T02:30:41.830Z,54.90
2018-09-22T02:33:10.380Z,54.90
2018-09-22T02:35:38.946Z,54.90
2018-09-22T02:38:07.705Z,54.90
2018-09-22T02:40:36.132Z,55.00
2018-09-22T02:43:04.768Z,54.90
2018-09-22T02:45:33.191Z,54.90
2018-09-22T02:48:01.697Z,55.00
2018-09-22T02:50:30.404Z,55.00
2018-09-22T02:52:58.887Z,55.60
2018-09-22T02:55:27.432Z,54.90
2018-09-22T02:57:56.087Z,54.90
2018-09-22T03:00:24.804Z,55.00
2018-09-22T03:02:53.507Z,54.90
2018-09-22T03:05:22.069Z,55.00
2018-09-22T03:07:50.626Z,54.90
2018-09-22T03:10:19.128Z,55.00
2018-09-22T03:12:47.818Z,54.90
2018-09-22T03:15:16.415Z,54.90
2018-09-22T03:17:44.857Z,54.90
2018-09-22T03:20:13.355Z,55.00
2018-09-22T03:22:41.943Z,54.90
2018-09-22T03:25:10.825Z,54.90
2018-09-22T03:27:40.253Z,54.90
2018-09-22T03:30:08.870Z,55.00
2018-09-22T03:32:37.532Z,54.70
2018-09-22T03:35:06.021Z,54.90
2018-09-22T03:37:34.685Z,54.90
2018-09-22T03:40:03.149Z,55.00
2018-09-22T03:42:31.735Z,54.90
2018-09-22T03:45:00.220Z,54.90
2018-09-22T03:47:28.711Z,54.80
2018-09-22T03:49:57.182Z,55.00
2018-09-22T03:52:25.629Z,54.90
2018-09-22T03:54:54.157Z,54.90
2018-09-22T03:57:22.676Z,54.90
2018-09-22T03:59:51.388Z,55.00
2018-09-22T04:02:20.160Z,54.90
2018-09-22T04:04:48.657Z,54.80
2018-09-22T04:07:17.336Z,54.90
2018-09-22T04:09:45.797Z,54.80
2018-09-22T04:12:14.260Z,54.80
2018-09-22T04:14:43.031Z,54.80
2018-09-22T04:17:11.762Z,54.80
2018-09-22T04:19:41.141Z,54.80
2018-09-22T04:22:09.834Z,54.80
2018-09-22T04:24:38.601Z,54.80
2018-09-22T04:27:07.184Z,54.80
2018-09-22T04:29:35.709Z,54.80
2018-09-22T04:32:04.109Z,54.80
2018-09-22T04:34:32.682Z,54.80
2018-09-22T04:37:01.337Z,54.90
2018-09-22T04:39:29.799Z,54.80
2018-09-22T04:41:58.309Z,55.40
2018-09-22T04:44:26.909Z,54.80
2018-09-22T04:46:55.365Z,54.80
2018-09-22T04:49:24.017Z,54.80
2018-09-22T04:51:52.457Z,54.80
2018-09-22T04:54:21.244Z,54.80
2018-09-22T04:56:49.704Z,54.90
2018-09-22T04:59:18.220Z,54.80
2018-09-22T05:01:46.942Z,54.90
2018-09-22T05:04:15.525Z,54.80
2018-09-22T05:06:44.031Z,54.90
2018-09-22T05:09:13.266Z,54.80
2018-09-22T05:11:41.989Z,54.80
2018-09-22T05:14:10.650Z,54.80
2018-09-22T05:16:40.851Z,54.90
2018-09-22T05:19:09.528Z,54.90
2018-09-22T05:21:38.053Z,54.90
2018-09-22T05:24:06.641Z,54.80
2018-09-22T05:26:35.175Z,54.80
2018-09-22T05:29:03.947Z,54.80
2018-09-22T05:31:32.565Z,54.80
2018-09-22T05:34:01.093Z,54.80
2018-09-22T05:36:29.641Z,54.80
2018-09-22T05:38:59.081Z,54.80
2018-09-22T05:41:27.557Z,54.90
2018-09-22T05:43:56.119Z,54.80
2018-09-22T05:46:24.582Z,54.80
2018-09-22T05:48:53.101Z,54.80
2018-09-22T05:51:21.658Z,54.80
2018-09-22T05:53:50.198Z,54.80
2018-09-22T05:56:18.850Z,54.80
2018-09-22T05:58:47.325Z,54.80
2018-09-22T06:01:15.772Z,55.30
2018-09-22T06:03:44.546Z,54.80
2018-09-22T06:06:12.957Z,54.90
2018-09-22T06:08:41.676Z,54.80
2018-09-22T06:11:10.192Z,54.80
2018-09-22T06:13:38.852Z,54.80
2018-09-22T06:16:07.946Z,54.80
2018-09-22T06:18:36.553Z,54.80
2018-09-22T06:21:04.977Z,54.80
2018-09-22T06:23:33.562Z,54.80
2018-09-22T06:26:02.059Z,54.80
2018-09-22T06:28:30.569Z,54.80
2018-09-22T06:30:59.221Z,54.80
2018-09-22T06:33:27.745Z,54.80
2018-09-22T06:35:56.259Z,54.80
2018-09-22T06:38:24.792Z,54.80
2018-09-22T06:40:53.259Z,54.80
2018-09-22T06:43:21.913Z,54.90
2018-09-22T06:45:50.587Z,54.80
2018-09-22T06:48:19.080Z,54.80
2018-09-22T06:50:47.763Z,54.80
2018-09-22T06:53:16.716Z,54.80
2018-09-22T06:55:45.279Z,54.80
2018-09-22T06:58:14.106Z,54.80
2018-09-22T07:00:42.875Z,54.80
2018-09-22T07:03:15.412Z,54.80
2018-09-22T07:05:43.919Z,54.80
2018-09-22T07:08:12.985Z,54.80
2018-09-22T07:10:41.624Z,54.80
2018-09-22T07:13:10.351Z,54.70
2018-09-22T07:15:40.354Z,54.80
2018-09-22T07:18:09.329Z,54.80
2018-09-22T07:20:37.887Z,54.80
2018-09-22T07:23:11.963Z,54.80
2018-09-22T07:25:40.681Z,54.80
2018-09-22T07:28:09.187Z,54.80
2018-09-22T07:30:39.041Z,54.80
2018-09-22T07:35:33.222Z,54.80
2018-09-22T07:38:01.863Z,54.80
2018-09-22T07:40:30.377Z,54.80
2018-09-22T07:42:58.877Z,54.80
2018-09-22T07:45:27.856Z,54.80
2018-09-22T07:47:56.694Z,54.80
2018-09-22T07:50:25.801Z,54.80
2018-09-22T07:52:54.458Z,54.80
2018-09-22T07:55:23.047Z,54.80
2018-09-22T07:57:51.590Z,54.80
2018-09-22T08:00:20.232Z,54.80
2018-09-22T08:02:48.905Z,54.80
2018-09-22T08:05:17.363Z,54.80
2018-09-22T08:07:45.841Z,54.80
2018-09-22T08:10:14.306Z,54.80
2018-09-22T08:12:42.853Z,54.80
2018-09-22T08:15:11.321Z,54.30
2018-09-22T08:17:41.863Z,54.80
2018-09-22T08:20:10.370Z,54.80
2018-09-22T08:22:39.110Z,54.80
2018-09-22T08:25:07.587Z,54.80
2018-09-22T08:27:36.069Z,54.80
2018-09-22T08:30:04.749Z,54.80
2018-09-22T08:32:33.248Z,54.80
2018-09-22T08:35:01.702Z,54.80
2018-09-22T08:37:30.140Z,54.80
2018-09-22T08:40:00.326Z,55.10
2018-09-22T08:42:31.452Z,54.80
2018-09-22T08:45:00.109Z,54.80
2018-09-22T08:47:28.616Z,54.80
2018-09-22T08:49:57.151Z,54.80
2018-09-22T08:52:25.615Z,54.80
2018-09-22T08:54:54.314Z,54.80
2018-09-22T08:57:22.952Z,54.80
2018-09-22T08:59:51.490Z,54.80
2018-09-22T09:02:20.045Z,54.80
2018-09-22T09:04:48.646Z,54.80
2018-09-22T09:07:17.365Z,54.70
2018-09-22T09:09:45.934Z,54.80
2018-09-22T09:12:14.443Z,54.80
2018-09-22T09:14:43.357Z,54.80
2018-09-22T09:17:12.413Z,54.80
2018-09-22T09:19:40.851Z,54.80
2018-09-22T09:22:09.365Z,54.80
2018-09-22T09:24:38.235Z,54.80
2018-09-22T09:27:06.829Z,54.70
2018-09-22T09:29:35.372Z,54.80
2018-09-22T09:32:04.018Z,54.80
2018-09-22T09:34:32.604Z,54.80
2018-09-22T09:37:01.226Z,54.80
2018-09-22T09:39:29.766Z,54.80
2018-09-22T09:41:58.314Z,54.80
2018-09-22T09:44:26.883Z,54.80
2018-09-22T09:46:55.360Z,54.70
2018-09-22T09:49:23.917Z,54.80
2018-09-22T09:51:52.334Z,55.00
2018-09-22T09:54:21.133Z,54.80
2018-09-22T09:56:49.605Z,54.80
2018-09-22T09:59:18.279Z,54.80
2018-09-22T10:01:46.734Z,54.80
2018-09-22T10:04:15.229Z,54.80
2018-09-22T10:06:43.775Z,54.80
2018-09-22T10:09:12.286Z,54.80
2018-09-22T10:11:40.833Z,54.80
2018-09-22T10:14:09.572Z,54.80
2018-09-22T10:16:39.801Z,54.70
2018-09-22T10:19:08.322Z,54.80
2018-09-22T10:21:36.755Z,54.80
2018-09-22T10:24:05.392Z,54.80
2018-09-22T10:26:33.846Z,54.70
2018-09-22T10:29:02.295Z,54.70
2018-09-22T10:31:31.025Z,54.70
2018-09-22T10:34:00.482Z,54.80
2018-09-22T10:36:29.338Z,54.70
2018-09-22T10:38:57.792Z,54.80
2018-09-22T10:41:26.423Z,54.70
2018-09-22T10:43:55.084Z,54.70
2018-09-22T10:46:23.531Z,54.70
2018-09-22T10:48:52.201Z,54.70
2018-09-22T10:51:20.861Z,54.70
2018-09-22T10:53:49.821Z,54.70
2018-09-22T10:56:18.290Z,54.70
2018-09-22T10:58:46.795Z,54.70
2018-09-22T11:01:17.482Z,54.70
2018-09-22T11:03:46.568Z,54.70
2018-09-22T11:06:20.278Z,54.70
2018-09-22T11:08:50.734Z,54.70
2018-09-22T11:11:19.355Z,54.70
2018-09-22T11:13:47.971Z,54.70
2018-09-22T11:16:19.173Z,54.70
2018-09-22T11:18:55.254Z,55.30
2018-09-22T11:21:26.441Z,54.60
2018-09-22T11:23:55.324Z,54.60
2018-09-22T11:26:25.838Z,54.70
2018-09-22T11:28:56.645Z,54.70
2018-09-22T11:31:29.505Z,54.20
2018-09-22T11:34:01.086Z,54.60
2018-09-22T11:36:30.250Z,54.70
2018-09-22T11:39:01.228Z,55.00
2018-09-22T11:41:29.806Z,54.70
2018-09-22T11:43:58.417Z,54.70
2018-09-22T11:46:26.997Z,54.70
2018-09-22T11:48:55.752Z,54.70
2018-09-22T11:51:24.314Z,54.70
2018-09-22T11:53:52.821Z,54.80
2018-09-22T11:56:21.385Z,54.80
2018-09-22T11:58:49.969Z,54.80
2018-09-22T12:01:18.420Z,54.80
2018-09-22T12:03:46.846Z,54.90
2018-09-22T12:06:15.472Z,54.90
2018-09-22T12:08:44.104Z,54.90
2018-09-22T12:11:12.612Z,54.90
2018-09-22T12:13:42.740Z,55.50
2018-09-22T12:16:11.301Z,54.90
2018-09-22T12:18:41.315Z,54.80
2018-09-22T12:21:09.953Z,54.80
2018-09-22T12:23:39.678Z,54.80
2018-09-22T12:26:09.954Z,54.80
2018-09-22T12:28:39.568Z,54.80
2018-09-22T12:31:08.322Z,54.80
2018-09-22T12:33:37.083Z,54.90
2018-09-22T12:36:07.188Z,54.90
2018-09-22T12:38:35.737Z,54.90
2018-09-22T12:41:04.407Z,54.80
2018-09-22T12:43:32.976Z,54.80
2018-09-22T12:46:01.485Z,54.80
2018-09-22T12:48:29.946Z,54.80
2018-09-22T12:50:58.553Z,54.80
2018-09-22T12:53:27.010Z,54.80
2018-09-22T12:55:55.537Z,54.80
2018-09-22T12:58:24.017Z,54.80
2018-09-22T13:00:52.645Z,55.20
2018-09-22T13:03:21.210Z,54.80
2018-09-22T13:05:49.777Z,54.80
2018-09-22T13:08:18.334Z,54.80
2018-09-22T13:10:47.023Z,54.80
2018-09-22T13:13:15.556Z,54.80
2018-09-22T13:15:44.397Z,54.80
2018-09-22T13:18:12.837Z,54.80
2018-09-22T13:20:42.564Z,54.80
2018-09-22T13:23:11.032Z,54.80
2018-09-22T13:25:41.361Z,54.80
2018-09-22T13:28:09.972Z,54.80
2018-09-22T13:30:39.206Z,54.80
2018-09-22T13:33:07.692Z,54.80
2018-09-22T13:35:36.149Z,54.80
2018-09-22T13:38:04.577Z,54.80
2018-09-22T13:40:33.065Z,54.80
2018-09-22T13:43:01.601Z,54.80
2018-09-22T13:45:30.142Z,54.80
2018-09-22T13:47:58.711Z,54.80
2018-09-22T13:50:27.221Z,54.80
2018-09-22T13:52:55.617Z,54.80
2018-09-22T13:55:24.065Z,54.80
2018-09-22T13:57:52.490Z,54.80
2018-09-22T14:00:20.909Z,54.80
2018-09-22T14:02:49.365Z,54.80
2018-09-22T14:05:17.978Z,54.70
2018-09-22T14:07:46.422Z,55.40
2018-09-22T14:10:14.946Z,54.80
2018-09-22T14:12:43.538Z,54.70
2018-09-22T14:15:12.000Z,54.70
2018-09-22T14:17:40.396Z,54.70
2018-09-22T14:20:08.828Z,54.70
2018-09-22T14:22:37.443Z,55.30
2018-09-22T14:25:06.091Z,54.70
2018-09-22T14:27:34.830Z,54.70
2018-09-22T14:30:03.329Z,54.70
2018-09-22T14:32:31.725Z,54.70
2018-09-22T14:35:00.682Z,54.80
2018-09-22T14:37:40.568Z,54.70
2018-09-22T14:40:11.271Z,54.70
2018-09-22T14:42:41.781Z,54.80
2018-09-22T14:45:10.476Z,54.80
2018-09-22T14:47:39.166Z,54.80
2018-09-22T14:50:07.801Z,54.70
2018-09-22T14:52:36.438Z,54.70
2018-09-22T14:55:04.860Z,54.70
2018-09-22T14:57:33.433Z,54.70
2018-09-22T15:00:04.200Z,54.70
2018-09-22T15:02:33.007Z,54.70
2018-09-22T15:05:01.665Z,54.80
2018-09-22T15:07:30.525Z,54.80
2018-09-22T15:09:59.279Z,54.80
2018-09-22T15:12:27.768Z,54.80
2018-09-22T15:14:56.367Z,54.80
2018-09-22T15:17:24.914Z,54.80
2018-09-22T15:19:53.380Z,54.70
2018-09-22T15:22:21.904Z,54.70
2018-09-22T15:24:50.387Z,54.70
2018-09-22T15:27:19.122Z,54.70
2018-09-22T15:29:47.642Z,54.70
2018-09-22T15:32:16.226Z,54.70
2018-09-22T15:34:47.281Z,54.70
2018-09-22T15:37:16.964Z,54.70
2018-09-22T15:39:45.425Z,54.70
2018-09-22T15:42:13.985Z,54.80
2018-09-22T15:44:42.756Z,54.80
2018-09-22T15:47:11.257Z,54.80
2018-09-22T15:49:39.901Z,54.80
2018-09-22T15:52:08.425Z,54.80
2018-09-22T15:54:36.913Z,54.80
2018-09-22T15:57:05.446Z,54.80
2018-09-22T15:59:34.165Z,54.80
2018-09-22T16:02:02.644Z,54.70
2018-09-22T16:04:31.306Z,54.80
2018-09-22T16:06:59.904Z,54.80
2018-09-22T16:09:28.365Z,54.80
2018-09-22T16:11:56.933Z,54.80
2018-09-22T16:14:25.430Z,54.80
2018-09-22T16:16:53.949Z,54.80
2018-09-22T16:19:22.408Z,54.80
2018-09-22T16:21:51.883Z,54.80
2018-09-22T16:24:21.744Z,54.80
2018-09-22T16:26:51.552Z,54.80
2018-09-22T16:29:21.943Z,54.80
2018-09-22T16:31:52.647Z,54.70
2018-09-22T16:34:24.082Z,54.80
2018-09-22T16:36:55.033Z,54.80
2018-09-22T16:39:28.794Z,54.80
2018-09-22T16:42:00.614Z,54.80
2018-09-22T16:44:31.279Z,54.90
2018-09-22T16:47:02.949Z,54.80
2018-09-22T16:49:33.126Z,54.80
2018-09-22T16:52:07.185Z,54.90
2018-09-22T16:54:39.099Z,54.80
2018-09-22T16:57:08.202Z,54.80
2018-09-22T16:59:39.530Z,54.90
2018-09-22T17:02:11.723Z,54.90
2018-09-22T17:04:40.838Z,54.90
2018-09-22T17:07:10.150Z,54.90
2018-09-22T17:09:38.930Z,54.90
2018-09-22T17:12:07.367Z,54.90
2018-09-22T17:14:35.973Z,54.90
2018-09-22T17:17:04.611Z,54.90
2018-09-22T17:19:33.197Z,54.80
2018-09-22T17:22:01.637Z,54.80
2018-09-22T17:24:30.310Z,54.90
2018-09-22T17:26:58.716Z,54.80
2018-09-22T17:29:29.668Z,54.80
2018-09-22T17:31:58.162Z,54.90
2018-09-22T17:34:26.726Z,54.90
2018-09-22T17:36:55.401Z,54.90
2018-09-22T17:39:23.804Z,54.90
2018-09-22T17:41:52.277Z,54.80
2018-09-22T17:44:20.865Z,55.10
2018-09-22T17:46:50.071Z,54.80
2018-09-22T17:49:18.597Z,54.90
2018-09-22T17:51:47.118Z,54.90
2018-09-22T17:54:15.709Z,54.90
2018-09-22T17:56:44.184Z,54.90
2018-09-22T17:59:12.750Z,54.90
2018-09-22T18:01:41.403Z,54.90
2018-09-22T18:04:10.073Z,54.90
2018-09-22T18:06:38.900Z,54.90
2018-09-22T18:09:08.617Z,54.90
2018-09-22T18:11:37.899Z,54.90
2018-09-22T18:14:06.412Z,54.80
2018-09-22T18:16:35.028Z,54.80
2018-09-22T18:19:03.669Z,54.80
2018-09-22T18:21:33.377Z,54.80
2018-09-22T18:24:02.276Z,54.80
2018-09-22T18:26:30.761Z,54.90
2018-09-22T18:28:59.416Z,54.90
2018-09-22T18:31:27.896Z,54.90
2018-09-22T18:33:56.561Z,54.90
2018-09-22T18:36:24.981Z,54.90
2018-09-22T18:38:53.670Z,55.00
2018-09-22T18:41:22.267Z,54.90
2018-09-22T18:43:50.756Z,54.90
2018-09-22T18:46:19.301Z,54.90
2018-09-22T18:48:48.293Z,54.90
2018-09-22T18:51:16.724Z,54.90
2018-09-22T18:53:45.511Z,54.90
2018-09-22T18:56:14.137Z,54.90
2018-09-22T18:58:42.934Z,54.90
2018-09-22T19:01:11.514Z,54.90
2018-09-22T19:03:40.380Z,54.90
2018-09-22T19:06:08.823Z,54.90
2018-09-22T19:08:37.402Z,54.90
2018-09-22T19:11:06.022Z,54.80
2018-09-22T19:13:41.890Z,54.90
2018-09-22T19:16:15.681Z,54.90
2018-09-22T19:18:49.782Z,54.90
2018-09-22T19:21:28.984Z,54.90
2018-09-22T19:24:03.939Z,54.90
2018-09-22T19:26:35.903Z,54.90
2018-09-22T19:30:10.577Z,54.90
2018-09-22T19:32:48.933Z,54.90
2018-09-22T19:35:20.708Z,54.90
2018-09-22T19:37:52.962Z,54.90
2018-09-22T19:40:25.502Z,55.20
2018-09-22T19:42:57.946Z,54.90
2018-09-22T19:45:38.833Z,54.90
2018-09-22T19:48:16.824Z,54.90
2018-09-22T19:50:52.921Z,54.90
2018-09-22T19:53:21.521Z,55.40
2018-09-22T19:55:50.004Z,54.90
2018-09-22T19:58:18.572Z,54.90
2018-09-22T20:00:47.077Z,54.80
2018-09-22T20:03:15.729Z,54.80
2018-09-22T20:05:44.218Z,54.80
2018-09-22T20:08:12.743Z,54.80
2018-09-22T20:10:42.028Z,54.80
2018-09-22T20:13:10.751Z,54.80
2018-09-22T20:15:39.754Z,54.80
2018-09-22T20:18:08.293Z,54.80
2018-09-22T20:20:36.945Z,54.80
2018-09-22T20:23:05.535Z,54.80
2018-09-22T20:25:34.038Z,54.80
2018-09-22T20:28:02.574Z,54.80
2018-09-22T20:30:31.332Z,54.80
2018-09-22T20:32:59.846Z,54.80
2018-09-22T20:35:28.357Z,54.80
2018-09-22T20:37:56.949Z,54.80
2018-09-22T20:40:25.546Z,54.80
2018-09-22T20:42:54.274Z,54.80
2018-09-22T20:45:22.860Z,54.80
2018-09-22T20:47:51.446Z,54.80
2018-09-22T20:50:20.050Z,54.80
2018-09-22T20:52:48.554Z,54.80
2018-09-22T20:55:17.257Z,54.80
2018-09-22T20:57:46.576Z,54.80
2018-09-22T21:00:15.189Z,54.80
2018-09-22T21:02:43.760Z,54.80
2018-09-22T21:05:12.409Z,54.80
2018-09-22T21:07:41.205Z,54.80
2018-09-22T21:10:09.714Z,54.80
2018-09-22T21:12:38.344Z,54.70
2018-09-22T21:15:07.312Z,54.80
2018-09-22T21:17:35.930Z,54.80
2018-09-22T21:20:04.484Z,54.80
2018-09-22T21:22:32.896Z,54.90
2018-09-22T21:25:01.651Z,55.00
2018-09-22T21:27:30.135Z,55.20
2018-09-22T21:29:59.032Z,55.30
2018-09-22T21:32:27.516Z,55.50
2018-09-22T21:34:57.140Z,55.60
2018-09-22T21:37:25.654Z,55.50
2018-09-22T21:39:54.168Z,55.40
2018-09-22T21:42:22.733Z,55.40
2018-09-22T21:44:51.288Z,55.40
2018-09-22T21:47:19.848Z,55.40
2018-09-22T21:49:48.388Z,55.40
2018-09-22T21:52:18.116Z,55.40
2018-09-22T21:54:47.729Z,55.40
2018-09-22T21:57:18.560Z,55.40
2018-09-22T21:59:47.093Z,55.40
2018-09-22T22:02:15.757Z,55.40
2018-09-22T22:04:44.398Z,55.40
2018-09-22T22:07:13.055Z,55.40
2018-09-22T22:09:42.528Z,54.90
2018-09-22T22:12:11.020Z,55.30
2018-09-22T22:14:41.323Z,55.50
2018-09-22T22:17:11.636Z,55.30
2018-09-22T22:19:40.074Z,55.30
2018-09-22T22:22:08.708Z,55.30
2018-09-22T22:24:37.211Z,55.30
2018-09-22T22:27:05.665Z,55.30
2018-09-22T22:29:34.236Z,55.30
2018-09-22T22:32:02.840Z,55.30
2018-09-22T22:34:31.425Z,55.30
2018-09-22T22:36:59.927Z,55.30
2018-09-22T22:39:28.608Z,55.30
2018-09-22T22:41:57.064Z,55.20
2018-09-22T22:44:25.916Z,55.50
2018-09-22T22:46:54.414Z,55.20
2018-09-22T22:49:22.848Z,55.20
2018-09-22T22:51:51.336Z,55.20
2018-09-22T22:54:19.894Z,55.20
2018-09-22T22:56:48.494Z,55.20
2018-09-22T22:59:17.102Z,55.20
2018-09-22T23:01:45.656Z,55.20
2018-09-22T23:04:14.134Z,55.20
2018-09-22T23:06:43.591Z,55.20
2018-09-22T23:09:12.303Z,55.20
2018-09-22T23:11:41.054Z,55.20
2018-09-22T23:14:09.592Z,55.20
2018-09-22T23:16:39.150Z,55.20
2018-09-22T23:19:07.801Z,55.20
2018-09-22T23:21:36.402Z,55.10
2018-09-22T23:24:04.830Z,55.10
2018-09-22T23:26:33.457Z,55.10
2018-09-22T23:29:01.946Z,55.10
2018-09-22T23:31:30.476Z,55.00
2018-09-22T23:33:59.016Z,55.10
2018-09-22T23:36:27.806Z,55.00
2018-09-22T23:38:56.233Z,55.10
2018-09-22T23:41:24.787Z,55.70
2018-09-22T23:43:53.282Z,55.10
2018-09-22T23:46:21.785Z,55.00
2018-09-22T23:48:50.274Z,55.10
2018-09-22T23:51:18.726Z,55.10
2018-09-22T23:53:47.228Z,55.10
2018-09-22T23:56:15.832Z,55.00
2018-09-22T23:58:44.247Z,55.00
